Time;durP1;ratioP1;P1;durP2;ratioP2;P2;SDS_P1;SDS_P2;PMS_P1;PMS_P2;Temp;Humidity;BMP_temperature;BMP_pressure;BME280_temperature;BME280_humidity;BME280_pressure;Samples;Min_cycle;Max_cycle;Signal;HPM_P1;HPM_P2
2021/08/08 00:01:20;;;;;;;4.53;2.00;;;;;;;15.97;96.52;99758.72;4955725;28;20164;-83
2021/08/08 00:03:46;;;;;;;4.00;2.13;;;;;;;15.93;96.95;99774.56;4945579;28;20042;-84
2021/08/08 00:06:11;;;;;;;3.42;1.85;;;;;;;15.98;96.90;99772.00;4979929;28;20133;-85
2021/08/08 00:08:36;;;;;;;4.50;1.80;;;;;;;16.01;96.89;99760.75;4947045;28;20123;-83
2021/08/08 00:11:02;;;;;;;3.60;1.70;;;;;;;15.99;97.74;99762.84;4981057;28;20066;-81
2021/08/08 00:13:28;;;;;;;5.00;1.90;;;;;;;15.98;97.23;99769.31;4978957;28;20038;-84
2021/08/08 00:15:54;;;;;;;4.38;2.10;;;;;;;15.96;98.34;99759.75;4983112;28;20129;-81
2021/08/08 00:18:20;;;;;;;6.10;2.33;;;;;;;15.96;98.23;99767.88;4978569;28;20046;-84
2021/08/08 00:20:45;;;;;;;6.72;2.30;;;;;;;15.92;98.62;99770.22;4978715;28;20562;-83
2021/08/08 00:23:11;;;;;;;4.47;2.15;;;;;;;15.94;98.12;99769.97;4981692;28;20034;-84
2021/08/08 00:25:36;;;;;;;4.43;2.40;;;;;;;15.96;98.76;99771.41;4979892;28;20066;-82
2021/08/08 00:28:02;;;;;;;4.57;1.98;;;;;;;15.92;98.96;99762.09;4981904;28;20042;-83
2021/08/08 00:30:28;;;;;;;4.18;2.20;;;;;;;15.91;100.00;99765.00;4978190;28;20042;-84
2021/08/08 00:32:54;;;;;;;4.28;2.35;;;;;;;15.88;99.87;99776.28;4979646;28;20533;-82
2021/08/08 00:35:21;;;;;;;5.60;2.15;;;;;;;15.88;99.83;99760.91;4979119;28;20050;-82
2021/08/08 00:37:48;;;;;;;3.80;2.50;;;;;;;15.92;99.75;99763.97;4979891;28;20124;-81
2021/08/08 00:40:15;;;;;;;7.70;2.78;;;;;;;15.91;99.49;99765.88;4983013;28;20050;-84
2021/08/08 00:42:42;;;;;;;4.45;2.55;;;;;;;15.91;99.15;99767.72;4978284;28;20042;-82
2021/08/08 00:45:08;;;;;;;6.07;2.97;;;;;;;15.90;99.39;99766.91;4962298;28;20130;-84
2021/08/08 00:47:35;;;;;;;6.63;3.25;;;;;;;15.86;100.00;99765.69;4980458;28;20497;-84
2021/08/08 00:50:01;;;;;;;7.88;3.80;;;;;;;15.79;100.00;99759.50;4980652;28;20530;-81
2021/08/08 00:52:27;;;;;;;6.35;3.22;;;;;;;15.73;100.00;99763.13;4977630;28;20081;-81
2021/08/08 00:54:52;;;;;;;6.13;3.70;;;;;;;15.72;100.00;99762.28;4985475;28;20113;-81
2021/08/08 00:57:17;;;;;;;7.95;3.50;;;;;;;15.63;100.00;99769.00;4979295;28;20053;-81
2021/08/08 00:59:44;;;;;;;7.15;4.47;;;;;;;15.61;100.00;99760.28;4976220;28;20249;-82
2021/08/08 01:02:10;;;;;;;8.93;5.55;;;;;;;15.57;100.00;99762.63;4982890;28;20092;-81
2021/08/08 01:04:42;;;;;;;9.57;5.78;;;;;;;15.57;100.00;99754.50;4999752;28;20202;-84
2021/08/08 01:07:16;;;;;;;9.13;5.00;;;;;;;15.55;100.00;99758.47;4981969;28;20062;-84
2021/08/08 01:09:48;;;;;;;7.95;4.60;;;;;;;15.52;100.00;99757.03;4997035;28;20088;-81
2021/08/08 01:12:13;;;;;;;10.20;5.30;;;;;;;15.53;100.00;99758.69;4986957;28;20062;-83
2021/08/08 01:14:40;;;;;;;7.40;4.50;;;;;;;15.51;100.00;99757.28;4984098;28;20077;-82
2021/08/08 01:17:08;;;;;;;6.78;4.68;;;;;;;15.51;100.00;99759.97;4987131;28;20464;-83
2021/08/08 01:19:41;;;;;;;8.50;4.22;;;;;;;15.45;100.00;99752.72;4984901;28;20085;-81
2021/08/08 01:22:07;;;;;;;8.63;4.60;;;;;;;15.43;100.00;99758.38;4984989;28;20065;-81
2021/08/08 01:24:33;;;;;;;7.63;4.57;;;;;;;15.41;100.00;99763.16;4986486;28;20126;-82
2021/08/08 01:26:58;;;;;;;8.60;5.05;;;;;;;15.47;100.00;99751.47;4986548;28;20046;-82
2021/08/08 01:29:24;;;;;;;8.15;5.07;;;;;;;15.46;100.00;99757.94;4984497;28;20046;-81
2021/08/08 01:31:51;;;;;;;8.75;5.30;;;;;;;15.48;100.00;99755.84;4997978;28;20045;-82
2021/08/08 01:34:16;;;;;;;6.13;4.63;;;;;;;15.45;100.00;99750.88;4985517;28;20093;-84
2021/08/08 01:36:44;;;;;;;7.82;5.00;;;;;;;15.42;100.00;99754.03;4978201;28;20058;-82
2021/08/08 01:39:16;;;;;;;10.93;6.15;;;;;;;15.35;100.00;99759.47;4963773;28;20046;-81
2021/08/08 01:41:47;;;;;;;9.02;5.47;;;;;;;15.34;100.00;99755.13;4974876;28;20060;-83
2021/08/08 01:44:13;;;;;;;11.32;6.25;;;;;;;15.36;100.00;99752.19;4980594;28;20129;-83
2021/08/08 01:46:40;;;;;;;10.02;6.03;;;;;;;15.35;100.00;99753.22;4982713;28;20134;-81
2021/08/08 01:49:06;;;;;;;9.20;5.63;;;;;;;15.34;100.00;99763.22;4996640;28;20050;-82
2021/08/08 01:51:32;;;;;;;9.77;6.18;;;;;;;15.37;100.00;99759.25;4982518;28;20097;-83
2021/08/08 01:53:59;;;;;;;11.93;7.18;;;;;;;15.38;100.00;99760.06;4973878;28;20043;-81
2021/08/08 01:56:25;;;;;;;15.43;6.22;;;;;;;15.33;100.00;99750.78;4980818;28;20046;-81
2021/08/08 01:58:51;;;;;;;8.95;6.00;;;;;;;15.30;100.00;99767.41;4978198;28;20053;-80
2021/08/08 02:01:16;;;;;;;10.57;6.72;;;;;;;15.29;100.00;99773.03;4995039;28;20157;-81
2021/08/08 02:03:42;;;;;;;9.68;7.15;;;;;;;15.32;100.00;99772.59;4998177;28;20073;-81
2021/08/08 02:06:09;;;;;;;11.80;6.82;;;;;;;15.30;100.00;99763.88;4977704;28;20144;-80
2021/08/08 02:08:35;;;;;;;11.07;7.32;;;;;;;15.30;100.00;99769.28;4990804;28;20538;-80
2021/08/08 02:11:00;;;;;;;10.98;7.18;;;;;;;15.33;100.00;99769.69;4976535;28;20050;-80
2021/08/08 02:13:27;;;;;;;13.57;7.20;;;;;;;15.28;100.00;99779.50;4980794;28;20054;-81
2021/08/08 02:15:53;;;;;;;11.07;7.45;;;;;;;15.31;100.00;99779.06;4959674;28;20055;-82
2021/08/08 02:18:19;;;;;;;16.40;6.97;;;;;;;15.30;100.00;99774.69;4962349;28;20185;-82
2021/08/08 02:20:46;;;;;;;12.43;7.15;;;;;;;15.28;100.00;99782.22;5011826;28;20521;-81
2021/08/08 02:23:12;;;;;;;13.68;8.13;;;;;;;15.30;100.00;99797.13;4977188;28;20087;-80
2021/08/08 02:25:38;;;;;;;15.30;8.25;;;;;;;15.31;100.00;99793.41;4973592;28;20039;-81
2021/08/08 02:28:09;;;;;;;11.88;7.18;;;;;;;15.27;100.00;99775.94;4996201;28;20065;-82
2021/08/08 02:30:36;;;;;;;13.50;7.30;;;;;;;15.25;100.00;99777.25;4979660;28;20773;-81
2021/08/08 02:33:02;;;;;;;17.95;8.70;;;;;;;15.25;100.00;99782.66;4979319;28;20046;-82
2021/08/08 02:35:28;;;;;;;16.52;8.40;;;;;;;15.23;100.00;99790.13;4979657;28;20188;-83
2021/08/08 02:37:53;;;;;;;12.88;8.05;;;;;;;15.25;100.00;99796.16;5007192;28;20042;-83
2021/08/08 02:40:19;;;;;;;15.98;9.75;;;;;;;15.26;100.00;99795.94;4979048;28;20121;-81
2021/08/08 02:42:44;;;;;;;13.93;8.55;;;;;;;15.21;100.00;99801.16;4980169;28;20042;-82
2021/08/08 02:45:10;;;;;;;16.98;8.88;;;;;;;15.16;100.00;99809.06;4984815;28;20514;-81
2021/08/08 02:47:35;;;;;;;16.38;8.75;;;;;;;15.16;100.00;99810.97;4980236;28;20105;-81
2021/08/08 02:50:01;;;;;;;13.80;8.82;;;;;;;15.18;100.00;99807.00;4976642;28;20655;-82
2021/08/08 02:52:26;;;;;;;12.35;7.45;;;;;;;15.14;100.00;99802.25;4989831;28;20042;-82
2021/08/08 02:54:52;;;;;;;16.65;9.20;;;;;;;15.15;100.00;99823.66;4978584;28;20085;-81
2021/08/08 02:57:17;;;;;;;16.63;8.73;;;;;;;15.19;100.00;99819.47;4982307;28;20039;-82
2021/08/08 02:59:43;;;;;;;16.48;9.48;;;;;;;15.18;100.00;99831.31;4989466;28;20038;-82
2021/08/08 03:02:08;;;;;;;14.02;9.35;;;;;;;15.19;100.00;99834.84;5007378;28;20035;-80
2021/08/08 03:04:34;;;;;;;18.83;8.65;;;;;;;15.16;100.00;99827.16;5001321;28;20046;-81
2021/08/08 03:07:00;;;;;;;17.85;9.63;;;;;;;15.16;100.00;99844.22;4989851;28;20038;-81
2021/08/08 03:09:25;;;;;;;15.73;9.75;;;;;;;15.14;100.00;99843.63;4983950;28;20427;-81
2021/08/08 03:11:50;;;;;;;16.15;8.88;;;;;;;15.10;100.00;99851.34;4981839;28;20034;-81
2021/08/08 03:14:17;;;;;;;16.30;9.02;;;;;;;15.06;100.00;99866.31;4963363;28;20035;-82
2021/08/08 03:16:44;;;;;;;17.75;9.85;;;;;;;15.06;100.00;99855.50;4963315;28;20034;-81
2021/08/08 03:19:10;;;;;;;16.00;8.80;;;;;;;15.10;100.00;99872.94;4980648;28;20040;-81
2021/08/08 03:21:35;;;;;;;21.17;9.43;;;;;;;15.09;100.00;99878.56;4977800;28;20093;-81
2021/08/08 03:24:02;;;;;;;18.17;8.80;;;;;;;15.04;100.00;99871.09;4965253;28;20062;-81
2021/08/08 03:26:28;;;;;;;18.85;9.90;;;;;;;15.05;100.00;99883.56;4977058;28;20189;-82
2021/08/08 03:28:54;;;;;;;19.08;10.10;;;;;;;15.04;100.00;99881.91;4968291;28;20039;-81
2021/08/08 03:31:19;;;;;;;19.42;10.25;;;;;;;15.06;100.00;99879.81;4966470;28;20546;-81
2021/08/08 03:33:45;;;;;;;17.52;9.75;;;;;;;15.05;100.00;99888.97;4943735;28;20133;-80
2021/08/08 03:36:12;;;;;;;17.67;9.55;;;;;;;15.07;100.00;99884.16;4979804;28;20058;-80
2021/08/08 03:38:38;;;;;;;18.20;10.20;;;;;;;15.09;100.00;99892.91;4979535;28;20597;-81
2021/08/08 03:41:04;;;;;;;17.55;10.85;;;;;;;15.09;100.00;99894.78;4977294;28;20092;-80
2021/08/08 03:43:29;;;;;;;17.40;9.85;;;;;;;15.09;100.00;99892.91;4983925;28;20035;-83
2021/08/08 03:45:55;;;;;;;17.83;9.57;;;;;;;15.08;100.00;99896.66;4980056;28;20074;-81
2021/08/08 03:48:20;;;;;;;20.30;10.25;;;;;;;15.10;100.00;99899.13;4989855;28;20126;-83
2021/08/08 03:50:45;;;;;;;16.38;8.98;;;;;;;15.08;100.00;99895.81;4981164;28;20057;-82
2021/08/08 03:53:11;;;;;;;16.40;8.90;;;;;;;15.10;100.00;99918.88;4993428;28;20051;-79
2021/08/08 03:55:36;;;;;;;18.70;9.38;;;;;;;15.08;100.00;99912.03;5010889;28;20189;-83
2021/08/08 03:58:01;;;;;;;19.83;8.63;;;;;;;15.10;100.00;99918.88;4970910;28;20089;-82
2021/08/08 04:00:28;;;;;;;17.73;8.57;;;;;;;15.09;100.00;99922.63;5009043;28;20054;-83
2021/08/08 04:02:53;;;;;;;18.73;8.10;;;;;;;15.08;100.00;99928.25;4976573;28;20031;-81
2021/08/08 04:05:19;;;;;;;11.48;8.18;;;;;;;15.11;100.00;99923.25;4979276;28;20053;-83
2021/08/08 04:07:44;;;;;;;13.90;7.15;;;;;;;15.09;100.00;99927.19;4962684;28;20532;-82
2021/08/08 04:10:10;;;;;;;14.05;7.68;;;;;;;15.05;100.00;99928.69;4976900;28;20277;-83
2021/08/08 04:12:35;;;;;;;17.08;8.18;;;;;;;15.06;100.00;99923.03;4981181;28;20062;-83
2021/08/08 04:15:02;;;;;;;12.90;6.90;;;;;;;15.03;100.00;99934.28;4975312;28;20554;-81
2021/08/08 04:17:28;;;;;;;16.05;7.90;;;;;;;15.02;100.00;99940.75;4975365;28;20053;-82
2021/08/08 04:19:53;;;;;;;16.77;6.60;;;;;;;14.97;100.00;99927.03;4984777;28;20054;-81
2021/08/08 04:22:19;;;;;;;19.15;7.63;;;;;;;14.99;100.00;99940.31;4976457;28;20122;-81
2021/08/08 04:24:45;;;;;;;14.95;7.40;;;;;;;15.02;100.00;99946.16;4978056;28;20049;-80
2021/08/08 04:27:13;;;;;;;17.88;7.20;;;;;;;15.02;100.00;99948.03;4997468;28;20054;-83
2021/08/08 04:29:39;;;;;;;14.55;7.63;;;;;;;15.00;100.00;99952.81;4979203;28;20468;-80
2021/08/08 04:32:04;;;;;;;13.88;6.53;;;;;;;14.98;100.00;99955.69;4980962;28;20034;-81
2021/08/08 04:34:31;;;;;;;16.48;7.70;;;;;;;15.00;100.00;99956.31;4981473;28;20049;-81
2021/08/08 04:36:57;;;;;;;14.90;7.95;;;;;;;15.02;100.00;99965.06;4976718;28;20050;-81
2021/08/08 04:39:24;;;;;;;17.30;7.30;;;;;;;15.02;100.00;99969.63;4978558;28;20050;-81
2021/08/08 04:41:51;;;;;;;14.90;7.10;;;;;;;15.03;100.00;99969.41;4980668;28;20069;-82
2021/08/08 04:44:17;;;;;;;18.63;7.75;;;;;;;15.03;100.00;99972.09;4996614;28;20034;-84
2021/08/08 04:46:42;;;;;;;14.93;7.68;;;;;;;15.04;100.00;99970.22;4978568;28;20389;-82
2021/08/08 04:49:09;;;;;;;14.70;7.18;;;;;;;15.03;100.00;99979.38;4982657;28;20042;-82
2021/08/08 04:51:34;;;;;;;17.65;6.88;;;;;;;15.01;100.00;99984.16;4983141;28;20042;-81
2021/08/08 04:53:59;;;;;;;11.50;6.40;;;;;;;15.04;100.00;99989.16;4962757;28;20105;-81
2021/08/08 04:56:25;;;;;;;19.40;6.78;;;;;;;15.06;100.00;99984.38;4981495;28;20207;-81
2021/08/08 04:58:50;;;;;;;19.20;6.75;;;;;;;15.07;100.00;99997.66;4977039;28;20065;-81
2021/08/08 05:01:15;;;;;;;14.98;6.97;;;;;;;15.05;100.00;99999.75;4983297;28;20046;-80
2021/08/08 05:03:41;;;;;;;18.25;6.13;;;;;;;15.02;100.00;99999.34;4980390;28;20042;-82
2021/08/08 05:06:10;;;;;;;14.80;6.45;;;;;;;15.02;100.00;99997.47;4979000;28;20073;-81
2021/08/08 05:08:35;;;;;;;15.57;6.70;;;;;;;15.00;100.00;99994.16;4980351;28;20538;-81
2021/08/08 05:11:00;;;;;;;14.68;6.88;;;;;;;15.05;100.00;99999.75;4974846;28;20046;-82
2021/08/08 05:13:28;;;;;;;17.15;7.00;;;;;;;15.09;100.00;100011.78;4973656;28;20050;-82
2021/08/08 05:15:54;;;;;;;20.65;6.68;;;;;;;15.11;100.00;100014.28;4938260;28;20058;-80
2021/08/08 05:18:19;;;;;;;13.95;6.20;;;;;;;15.09;100.00;100017.19;4960554;28;20400;-84
2021/08/08 05:20:45;;;;;;;16.17;5.97;;;;;;;15.09;100.00;100028.00;4958242;28;22047;-83
2021/08/08 05:23:10;;;;;;;16.58;6.28;;;;;;;15.05;100.00;100017.84;4977343;28;20564;-81
2021/08/08 05:25:35;;;;;;;13.70;6.10;;;;;;;15.10;100.00;100026.13;4959462;28;20049;-81
2021/08/08 05:28:01;;;;;;;17.33;7.00;;;;;;;15.15;100.00;100031.72;4958842;28;20047;-82
2021/08/08 05:30:26;;;;;;;15.77;6.43;;;;;;;15.14;100.00;100027.38;4975735;28;20050;-81
2021/08/08 05:32:57;;;;;;;11.77;5.68;;;;;;;15.12;100.00;100021.34;4959619;28;20053;-84
2021/08/08 05:35:24;;;;;;;16.88;6.63;;;;;;;15.13;100.00;100031.09;4959250;28;21934;-83
2021/08/08 05:37:49;;;;;;;15.93;5.78;;;;;;;15.13;100.00;100033.78;4959374;28;20051;-82
2021/08/08 05:40:16;;;;;;;13.15;6.10;;;;;;;15.18;100.00;100039.41;4976833;28;20054;-82
2021/08/08 05:42:48;;;;;;;18.63;6.20;;;;;;;15.14;100.00;100045.47;4958465;28;20042;-80
2021/08/08 05:45:15;;;;;;;15.23;6.10;;;;;;;15.14;100.00;100056.28;4958844;28;20098;-80
2021/08/08 05:47:40;;;;;;;17.00;5.90;;;;;;;15.12;100.00;100060.00;4959916;28;20081;-81
2021/08/08 05:50:06;;;;;;;15.55;5.90;;;;;;;15.16;100.00;100059.56;4960324;28;20043;-81
2021/08/08 05:52:31;;;;;;;17.98;6.28;;;;;;;15.22;100.00;100048.75;4960804;28;20407;-83
2021/08/08 05:55:00;;;;;;;16.58;7.68;;;;;;;15.24;100.00;100054.75;4956846;28;20057;-83
2021/08/08 05:57:25;;;;;;;14.30;5.90;;;;;;;15.25;100.00;100063.72;4960344;28;20139;-82
2021/08/08 05:59:51;;;;;;;15.57;7.45;;;;;;;15.27;100.00;100061.63;4954411;28;20051;-85
2021/08/08 06:02:16;;;;;;;15.57;6.35;;;;;;;15.29;100.00;100060.38;4959011;28;20113;-83
2021/08/08 06:04:41;;;;;;;14.35;5.60;;;;;;;15.29;100.00;100064.94;4990543;28;20034;-81
2021/08/08 06:07:07;;;;;;;17.20;6.68;;;;;;;15.35;100.00;100064.09;4978765;28;20212;-84
2021/08/08 06:09:32;;;;;;;13.25;5.57;;;;;;;15.37;99.86;100077.41;4976097;28;20128;-84
2021/08/08 06:11:57;;;;;;;16.50;5.78;;;;;;;15.38;99.76;100068.25;4977586;28;20346;-81
2021/08/08 06:14:23;;;;;;;19.15;6.40;;;;;;;15.40;99.41;100079.69;4981829;28;20081;-81
2021/08/08 06:16:48;;;;;;;15.85;7.28;;;;;;;15.41;98.88;100097.56;4976119;28;22662;-81
2021/08/08 06:19:19;;;;;;;17.27;6.43;;;;;;;15.39;98.43;100095.06;4981197;28;20092;-82
2021/08/08 06:21:45;;;;;;;19.90;7.78;;;;;;;15.42;98.67;100094.66;4980110;28;20050;-82
2021/08/08 06:24:10;;;;;;;17.65;6.55;;;;;;;15.39;98.82;100102.34;4979633;28;20153;-81
2021/08/08 06:26:36;;;;;;;16.90;7.15;;;;;;;15.39;98.77;100096.94;4969328;28;20073;-83
2021/08/08 06:29:05;;;;;;;15.98;6.57;;;;;;;15.38;98.93;100103.38;4977770;28;20050;-82
2021/08/08 06:31:31;;;;;;;13.05;6.45;;;;;;;15.39;98.10;100102.34;4986055;28;20054;-81
2021/08/08 06:33:57;;;;;;;12.63;5.57;;;;;;;15.42;98.20;100110.03;4976363;28;20096;-84
2021/08/08 06:36:22;;;;;;;14.82;6.50;;;;;;;15.46;97.61;100105.88;5008150;28;20051;-80
2021/08/08 06:38:49;;;;;;;13.15;5.90;;;;;;;15.46;97.24;100120.22;4979746;28;20077;-83
2021/08/08 06:41:14;;;;;;;14.85;5.72;;;;;;;15.47;97.21;100116.44;4977360;28;20178;-81
2021/08/08 06:43:40;;;;;;;17.90;6.82;;;;;;;15.50;97.18;100121.44;4978784;28;20101;-83
2021/08/08 06:46:05;;;;;;;13.43;6.05;;;;;;;15.50;97.07;100126.84;4960209;28;20042;-81
2021/08/08 06:48:34;;;;;;;14.05;6.15;;;;;;;15.52;97.02;100123.94;4980300;28;20129;-82
2021/08/08 06:51:01;;;;;;;11.50;5.88;;;;;;;15.47;96.55;100134.56;4973513;28;20510;-80
2021/08/08 06:53:28;;;;;;;17.55;6.32;;;;;;;15.50;96.94;100136.84;4984599;28;20177;-83
2021/08/08 06:55:53;;;;;;;15.15;6.15;;;;;;;15.49;97.49;100141.41;4983524;28;20030;-81
2021/08/08 06:58:19;;;;;;;13.77;5.80;;;;;;;15.54;96.57;100138.09;4980086;28;20105;-80
2021/08/08 07:00:44;;;;;;;15.70;6.05;;;;;;;15.57;96.47;100143.88;4981368;28;20050;-83
2021/08/08 07:03:10;;;;;;;14.50;5.43;;;;;;;15.56;96.06;100155.75;4984399;28;20046;-83
2021/08/08 07:05:36;;;;;;;13.60;5.55;;;;;;;15.58;96.80;100161.75;4984360;28;20196;-80
2021/08/08 07:08:01;;;;;;;16.20;5.57;;;;;;;15.62;96.05;100172.16;5019033;28;20049;-81
2021/08/08 07:10:27;;;;;;;14.88;6.10;;;;;;;15.62;96.20;100172.16;4982437;28;20093;-80
2021/08/08 07:12:53;;;;;;;15.88;6.25;;;;;;;15.65;96.08;100166.31;4994938;28;20073;-79
2021/08/08 07:15:18;;;;;;;18.73;5.53;;;;;;;15.71;95.82;100169.06;4980463;28;20507;-80
2021/08/08 07:17:45;;;;;;;15.07;5.45;;;;;;;15.72;95.63;100172.59;4982503;28;20046;-82
2021/08/08 07:20:10;;;;;;;14.23;5.70;;;;;;;15.72;95.82;100169.88;4981495;28;20411;-82
2021/08/08 07:22:37;;;;;;;14.57;6.03;;;;;;;15.71;95.66;100170.94;4983086;28;20034;-81
2021/08/08 07:25:02;;;;;;;14.85;5.07;;;;;;;15.74;94.96;100182.16;4981114;28;20070;-82
2021/08/08 07:27:28;;;;;;;14.95;5.68;;;;;;;15.80;95.04;100175.06;4944618;28;20066;-83
2021/08/08 07:29:53;;;;;;;15.63;6.00;;;;;;;15.82;95.31;100177.53;4996953;28;20057;-83
2021/08/08 07:32:19;;;;;;;12.52;4.82;;;;;;;15.83;94.08;100190.03;4982691;28;20547;-82
2021/08/08 07:34:44;;;;;;;14.15;4.78;;;;;;;15.82;94.01;100194.59;4985190;28;20495;-83
2021/08/08 07:37:10;;;;;;;14.55;5.15;;;;;;;15.86;93.75;100189.63;4986580;28;20077;-84
2021/08/08 07:39:36;;;;;;;12.95;5.00;;;;;;;15.88;93.66;100195.63;4986944;28;20427;-82
2021/08/08 07:42:03;;;;;;;12.10;4.90;;;;;;;15.87;93.11;100202.91;4985109;28;20099;-81
2021/08/08 07:44:28;;;;;;;15.07;5.45;;;;;;;15.91;93.73;100196.03;4982167;28;20616;-81
2021/08/08 07:46:55;;;;;;;13.00;5.13;;;;;;;15.93;93.74;100204.75;4977768;28;20073;-83
2021/08/08 07:49:21;;;;;;;12.85;4.90;;;;;;;15.90;92.56;100207.91;5004020;28;20042;-81
2021/08/08 07:51:46;;;;;;;16.38;5.15;;;;;;;15.95;92.04;100208.09;4985411;28;20050;-81
2021/08/08 07:54:11;;;;;;;14.65;4.55;;;;;;;16.02;92.48;100214.31;4982360;28;20054;-82
2021/08/08 07:56:37;;;;;;;12.90;5.20;;;;;;;16.09;92.14;100210.75;4997955;28;20395;-83
2021/08/08 07:59:02;;;;;;;14.73;4.43;;;;;;;16.17;92.05;100213.19;4981656;28;20042;-83
2021/08/08 08:01:32;;;;;;;11.88;4.93;;;;;;;16.15;90.57;100216.13;4993783;28;20038;-81
2021/08/08 08:03:57;;;;;;;15.00;4.72;;;;;;;16.15;89.47;100220.72;4973191;28;20057;-83
2021/08/08 08:06:23;;;;;;;13.93;4.30;;;;;;;16.18;89.69;100212.16;4984770;28;20043;-81
2021/08/08 08:08:48;;;;;;;8.77;3.78;;;;;;;16.28;90.43;100226.06;4980573;28;20571;-83
2021/08/08 08:11:14;;;;;;;11.48;5.05;;;;;;;16.28;89.66;100223.34;5010130;28;20046;-82
2021/08/08 08:13:39;;;;;;;14.32;4.40;;;;;;;16.30;88.91;100229.38;4999871;28;20104;-81
2021/08/08 08:16:04;;;;;;;13.70;4.68;;;;;;;16.38;89.77;100237.28;4980802;28;20054;-84
2021/08/08 08:18:30;;;;;;;11.20;3.95;;;;;;;16.37;87.73;100240.19;4985469;28;20046;-82
2021/08/08 08:20:56;;;;;;;12.13;5.30;;;;;;;16.45;88.14;100239.94;4983403;28;20046;-83
2021/08/08 08:23:21;;;;;;;12.68;4.03;;;;;;;16.44;86.49;100239.09;4986446;28;20430;-83
2021/08/08 08:25:47;;;;;;;14.48;4.47;;;;;;;16.52;87.39;100232.63;4985188;28;20043;-83
2021/08/08 08:28:13;;;;;;;13.50;4.47;;;;;;;16.59;86.69;100243.41;4983252;28;20042;-83
2021/08/08 08:30:39;;;;;;;13.05;3.92;;;;;;;16.59;85.50;100248.81;4998720;28;20545;-83
2021/08/08 08:33:06;;;;;;;10.18;3.83;;;;;;;16.61;85.42;100246.75;5000696;28;21687;-83
2021/08/08 08:35:31;;;;;;;17.52;4.68;;;;;;;16.68;85.45;100239.41;4985177;28;20045;-85
2021/08/08 08:37:57;;;;;;;13.68;4.30;;;;;;;16.80;85.04;100255.81;4984526;28;20042;-84
2021/08/08 08:40:22;;;;;;;11.90;4.40;;;;;;;16.89;84.96;100254.53;4980338;28;20567;-83
2021/08/08 08:42:56;;;;;;;9.82;3.97;;;;;;;16.96;83.23;100243.63;4978213;28;20039;-81
2021/08/08 08:45:22;;;;;;;9.25;4.18;;;;;;;16.99;82.91;100262.16;4995042;28;20045;-84
2021/08/08 08:47:47;;;;;;;10.68;3.67;;;;;;;16.98;81.88;100263.22;4979003;28;20069;-84
2021/08/08 08:50:14;;;;;;;10.35;4.10;;;;;;;16.98;82.31;100260.50;4995972;28;20619;-84
2021/08/08 08:52:39;;;;;;;10.73;4.32;;;;;;;16.92;80.91;100263.03;4980834;28;20061;-82
2021/08/08 08:55:06;;;;;;;9.93;3.38;;;;;;;16.93;80.75;100269.28;4980555;28;20373;-83
2021/08/08 08:57:35;;;;;;;9.10;3.88;;;;;;;17.02;81.61;100269.84;4981352;28;20042;-86
2021/08/08 09:00:06;;;;;;;9.98;3.70;;;;;;;17.09;81.80;100271.47;4973261;28;20074;-81
2021/08/08 09:02:31;;;;;;;12.15;3.83;;;;;;;17.06;80.94;100266.50;4978188;28;20042;-82
2021/08/08 09:04:57;;;;;;;9.63;3.83;;;;;;;17.10;81.45;100266.88;4979820;28;20819;-85
2021/08/08 09:07:22;;;;;;;10.88;4.05;;;;;;;17.14;80.92;100274.34;5009745;28;20119;-82
2021/08/08 09:09:47;;;;;;;11.85;3.92;;;;;;;17.19;81.74;100289.97;4976300;28;20074;-86
2021/08/08 09:12:21;;;;;;;10.77;4.57;;;;;;;17.19;81.33;100286.41;4977456;28;20054;-84
2021/08/08 09:14:55;;;;;;;11.15;3.92;;;;;;;17.12;80.45;100278.34;4971484;28;20042;-82
2021/08/08 09:17:22;;;;;;;9.70;3.80;;;;;;;17.03;80.78;100290.47;5001665;28;20069;-81
2021/08/08 09:19:58;;;;;;;10.85;4.25;;;;;;;17.00;81.59;100283.59;4976978;28;20053;-83
2021/08/08 09:22:23;;;;;;;8.13;3.90;;;;;;;17.05;80.64;100291.09;4963638;28;20121;-85
2021/08/08 09:24:49;;;;;;;11.13;4.13;;;;;;;17.11;81.00;100314.63;4968012;28;20069;-84
2021/08/08 09:27:15;;;;;;;14.13;4.03;;;;;;;17.23;80.45;100293.06;4971580;28;20054;-83
2021/08/08 09:29:42;;;;;;;13.70;4.50;;;;;;;17.29;79.92;100301.16;4950567;28;20049;-82
2021/08/08 09:32:10;;;;;;;10.80;3.92;;;;;;;17.47;80.77;100299.56;4991940;28;20499;-82
2021/08/08 09:34:39;;;;;;;13.77;3.70;;;;;;;17.57;80.50;100289.84;4983641;28;20483;-85
2021/08/08 09:37:07;;;;;;;11.52;4.55;;;;;;;17.66;78.44;100303.97;4985427;28;20073;-85
2021/08/08 09:39:42;;;;;;;10.13;3.67;;;;;;;17.83;79.41;100308.84;5017026;28;20042;-87
2021/08/08 09:42:18;;;;;;;8.55;3.10;;;;;;;17.85;73.67;100315.72;5015690;28;20491;-86
2021/08/08 09:44:54;;;;;;;9.85;3.33;;;;;;;17.89;74.54;100319.63;4979276;28;20050;-85
2021/08/08 09:47:22;;;;;;;10.38;2.90;;;;;;;17.85;73.96;100312.19;4973928;28;20042;-83
2021/08/08 09:50:05;;;;;;;9.30;3.28;;;;;;;17.94;75.33;100327.94;5000294;28;20042;-83
2021/08/08 09:52:32;;;;;;;13.52;3.92;;;;;;;17.98;73.28;100309.31;4982738;28;20049;-82
2021/08/08 09:54:57;;;;;;;10.40;2.95;;;;;;;17.96;72.96;100327.72;4985938;28;20043;-85
2021/08/08 09:57:22;;;;;;;9.98;3.17;;;;;;;17.95;72.64;100313.34;4969480;28;20053;-83
2021/08/08 09:59:49;;;;;;;10.68;3.33;;;;;;;18.02;73.35;100332.25;4985359;28;20035;-85
2021/08/08 10:02:21;;;;;;;13.75;3.78;;;;;;;18.04;73.36;100324.75;4979445;28;20053;-85
2021/08/08 10:04:48;;;;;;;11.23;3.58;;;;;;;18.31;73.68;100322.53;4981973;28;20049;-85
2021/08/08 10:07:16;;;;;;;9.05;3.47;;;;;;;18.33;73.19;100331.31;4985416;28;20034;-87
2021/08/08 10:09:43;;;;;;;8.88;3.47;;;;;;;18.20;71.68;100340.41;5014284;28;20128;-85
2021/08/08 10:12:49;;;;;;;9.93;2.90;;;;;;;18.20;72.78;100337.69;4983192;28;20062;-82
2021/08/08 10:15:15;;;;;;;8.93;3.30;;;;;;;18.22;72.18;100332.88;5009009;28;20042;-83
2021/08/08 10:17:44;;;;;;;9.30;3.08;;;;;;;18.29;72.74;100329.25;4997110;28;20043;-84
2021/08/08 10:20:10;;;;;;;10.38;2.90;;;;;;;18.34;70.62;100332.13;4960218;28;20049;-85
2021/08/08 10:22:42;;;;;;;10.30;2.83;;;;;;;18.27;71.38;100351.22;4947335;28;20141;-85
2021/08/08 10:25:08;;;;;;;9.50;3.17;;;;;;;18.30;71.59;100364.34;4967396;28;20057;-83
2021/08/08 10:27:34;;;;;;;9.15;3.13;;;;;;;18.23;69.69;100353.53;4986404;28;20464;-84
2021/08/08 10:30:02;;;;;;;7.50;3.30;;;;;;;18.18;69.95;100350.69;4984635;28;20038;-86
2021/08/08 10:32:28;;;;;;;10.20;3.00;;;;;;;18.22;70.63;100346.47;5016939;28;20034;-86
2021/08/08 10:34:55;;;;;;;9.55;3.60;;;;;;;18.34;72.04;100356.56;4987553;28;20051;-84
2021/08/08 10:37:25;;;;;;;8.55;3.28;;;;;;;18.40;71.31;100358.38;4987756;28;20050;-83
2021/08/08 10:39:52;;;;;;;8.90;2.95;;;;;;;18.36;70.38;100370.78;4981340;28;20050;-83
2021/08/08 10:42:20;;;;;;;9.63;3.13;;;;;;;18.40;69.90;100394.53;5011564;28;20118;-86
2021/08/08 10:44:49;;;;;;;8.00;3.00;;;;;;;18.42;69.25;100367.16;4981596;28;20038;-83
2021/08/08 10:47:28;;;;;;;9.82;2.97;;;;;;;18.41;69.16;100370.91;4979852;28;21574;-82
2021/08/08 10:49:53;;;;;;;;;;;;;;;18.54;69.46;100362.63;4977438;28;20050;-85
2021/08/08 10:52:19;;;;;;;10.48;3.67;;;;;;;18.42;70.23;100370.69;4980457;28;20430;-86
2021/08/08 10:54:49;;;;;;;10.20;2.90;;;;;;;18.39;70.20;100362.16;4979743;28;20490;-83
2021/08/08 10:57:19;;;;;;;7.22;2.50;;;;;;;18.45;70.57;100363.97;4987174;28;20117;-84
2021/08/08 10:59:46;;;;;;;7.85;3.22;;;;;;;18.45;69.36;100366.69;4981461;28;20045;-87
2021/08/08 11:02:23;;;;;;;8.48;2.70;;;;;;;18.62;69.80;100365.03;4985048;28;20534;-82
2021/08/08 11:04:49;;;;;;;7.55;2.80;;;;;;;18.64;68.98;100381.09;4977818;28;20042;-86
2021/08/08 11:07:24;;;;;;;7.38;3.03;;;;;;;18.69;68.10;100376.63;4982804;28;20177;-84
2021/08/08 11:09:51;;;;;;;10.13;3.35;;;;;;;18.67;67.57;100373.34;4977090;28;20050;-83
2021/08/08 11:12:30;;;;;;;8.20;2.45;;;;;;;18.89;68.29;100376.41;4978817;28;20045;-83
2021/08/08 11:14:55;;;;;;;6.65;2.85;;;;;;;18.98;68.56;100370.66;4992563;28;20141;-86
2021/08/08 11:17:25;;;;;;;6.47;2.65;;;;;;;19.13;67.12;100371.94;4980575;28;20057;-84